createdAt,value
2017-11-09T00:00:11.157Z,0.00
2017-11-09T00:01:11.148Z,0.00
2017-11-09T00:02:14.065Z,0.00
2017-11-09T00:03:11.138Z,0.00
2017-11-09T00:04:11.122Z,0.00
2017-11-09T00:05:11.108Z,0.00
2017-11-09T00:06:11.102Z,0.00
2017-11-09T00:07:11.097Z,0.00
2017-11-09T00:08:11.085Z,0.00
2017-11-09T00:09:11.574Z,0.00
2017-11-09T00:10:11.067Z,0.00
2017-11-09T00:11:11.049Z,0.00
2017-11-09T00:12:11.046Z,0.00
2017-11-09T00:13:11.035Z,0.00
2017-11-09T00:14:11.576Z,0.00
2017-11-09T00:15:11.567Z,0.00
2017-11-09T00:16:11.016Z,0.00
2017-11-09T00:17:11.003Z,0.00
2017-11-09T00:18:10.993Z,0.00
2017-11-09T00:19:10.986Z,0.00
2017-11-09T00:20:10.978Z,0.00
2017-11-09T00:21:10.962Z,0.00
2017-11-09T00:22:10.957Z,0.00
2017-11-09T00:23:10.951Z,0.00
2017-11-09T00:24:10.939Z,0.00
2017-11-09T00:25:10.921Z,0.00
2017-11-09T00:26:10.946Z,0.00
2017-11-09T00:27:10.906Z,0.00
2017-11-09T00:28:11.580Z,0.00
2017-11-09T00:29:10.889Z,0.00
2017-11-09T00:30:10.899Z,0.00
2017-11-09T00:31:10.873Z,0.00
2017-11-09T00:32:10.865Z,0.00
2017-11-09T00:33:10.868Z,0.00
2017-11-09T00:34:10.847Z,0.00
2017-11-09T00:35:10.841Z,0.00
2017-11-09T00:36:10.831Z,0.00
2017-11-09T00:37:11.588Z,0.00
2017-11-09T00:38:10.810Z,0.00
2017-11-09T00:39:10.799Z,0.00
2017-11-09T00:40:10.792Z,0.00
2017-11-09T00:41:10.784Z,0.00
2017-11-09T00:42:10.772Z,0.00
2017-11-09T00:43:10.759Z,0.00
2017-11-09T00:44:10.751Z,0.00
2017-11-09T00:45:10.742Z,0.00
2017-11-09T00:46:10.733Z,0.00
2017-11-09T00:47:10.726Z,0.00
2017-11-09T00:48:11.589Z,0.00
2017-11-09T00:49:10.720Z,0.00
2017-11-09T00:50:10.697Z,0.00
2017-11-09T00:51:10.681Z,0.00
2017-11-09T00:52:10.686Z,0.00
2017-11-09T00:53:10.670Z,0.00
2017-11-09T00:54:10.651Z,0.00
2017-11-09T00:55:10.647Z,0.00
2017-11-09T00:56:10.655Z,0.00
2017-11-09T00:57:10.632Z,0.00
2017-11-09T00:58:10.620Z,0.00
2017-11-09T00:59:10.619Z,0.00
2017-11-09T01:00:10.603Z,0.00
2017-11-09T01:01:10.599Z,0.00
2017-11-09T01:02:10.607Z,0.00
2017-11-09T01:03:10.581Z,0.00
2017-11-09T01:04:10.593Z,0.00
2017-11-09T01:05:10.563Z,0.00
2017-11-09T01:06:10.566Z,0.00
2017-11-09T01:07:10.541Z,0.00
2017-11-09T01:08:10.533Z,0.00
2017-11-09T01:09:10.521Z,0.00
2017-11-09T01:10:10.521Z,0.00
2017-11-09T01:11:10.502Z,0.00
2017-11-09T01:12:10.490Z,0.00
2017-11-09T01:13:10.487Z,0.00
2017-11-09T01:14:10.480Z,0.00
2017-11-09T01:15:10.470Z,0.00
2017-11-09T01:16:10.460Z,0.00
2017-11-09T01:17:11.102Z,0.00
2017-11-09T01:18:10.443Z,0.00
2017-11-09T01:19:10.439Z,0.00
2017-11-09T01:20:11.099Z,0.00
2017-11-09T01:21:11.101Z,0.00
2017-11-09T01:22:10.403Z,0.00
2017-11-09T01:23:10.397Z,0.00
2017-11-09T01:24:10.384Z,0.00
2017-11-09T01:25:10.380Z,0.00
2017-11-09T01:26:10.369Z,0.00
2017-11-09T01:27:11.102Z,0.00
2017-11-09T01:28:10.357Z,0.00
2017-11-09T01:29:10.340Z,0.00
2017-11-09T01:30:10.331Z,0.00
2017-11-09T01:31:10.324Z,0.00
2017-11-09T01:32:10.317Z,0.00
2017-11-09T01:33:10.305Z,0.00
2017-11-09T01:34:10.337Z,0.00
2017-11-09T01:35:11.096Z,0.00
2017-11-09T01:36:10.289Z,0.00
2017-11-09T01:37:10.269Z,0.00
2017-11-09T01:38:10.255Z,0.00
2017-11-09T01:39:10.250Z,0.00
2017-11-09T01:40:10.243Z,0.00
2017-11-09T01:41:10.240Z,0.00
2017-11-09T01:42:10.221Z,0.00
2017-11-09T01:43:10.217Z,0.00
2017-11-09T01:44:10.207Z,0.00
2017-11-09T01:45:10.209Z,0.00
2017-11-09T01:46:10.185Z,0.00
2017-11-09T01:47:10.179Z,0.00
2017-11-09T01:48:11.113Z,0.00
2017-11-09T01:49:10.161Z,0.00
2017-11-09T01:50:10.152Z,0.00
2017-11-09T01:51:10.139Z,0.00
2017-11-09T01:52:10.130Z,0.00
2017-11-09T01:53:11.110Z,0.00
2017-11-09T01:54:10.115Z,0.00
2017-11-09T01:55:10.111Z,0.00
2017-11-09T01:56:10.103Z,0.00
2017-11-09T01:57:10.088Z,0.00
2017-11-09T01:58:10.104Z,0.00
2017-11-09T01:59:10.080Z,0.00
2017-11-09T02:00:10.617Z,0.00
2017-11-09T02:01:10.050Z,0.00
2017-11-09T02:02:10.052Z,0.00
2017-11-09T02:03:10.031Z,0.00
2017-11-09T02:04:10.018Z,0.00
2017-11-09T02:05:10.009Z,0.00
2017-11-09T02:06:09.998Z,0.00
2017-11-09T02:07:10.618Z,0.00
2017-11-09T02:08:09.980Z,0.00
2017-11-09T02:09:09.981Z,0.00
2017-11-09T02:10:09.984Z,0.00
2017-11-09T02:11:09.958Z,0.00
2017-11-09T02:12:09.960Z,0.00
2017-11-09T02:13:09.941Z,0.00
2017-11-09T02:14:10.618Z,0.00
2017-11-09T02:15:09.923Z,0.00
2017-11-09T02:16:09.912Z,0.00
2017-11-09T02:17:09.904Z,0.00
2017-11-09T02:18:09.895Z,0.00
2017-11-09T02:19:09.881Z,0.00
2017-11-09T02:20:09.875Z,0.00
2017-11-09T02:21:09.867Z,0.00
2017-11-09T02:22:09.860Z,0.00
2017-11-09T02:23:09.848Z,0.00
2017-11-09T02:24:09.836Z,0.00
2017-11-09T02:25:09.831Z,0.00
2017-11-09T02:26:09.824Z,0.00
2017-11-09T02:27:09.815Z,0.00
2017-11-09T02:28:09.810Z,0.00
2017-11-09T02:29:09.793Z,0.00
2017-11-09T02:30:09.785Z,0.00
2017-11-09T02:31:09.796Z,0.00
2017-11-09T02:32:09.769Z,0.00
2017-11-09T02:33:09.760Z,0.00
2017-11-09T02:34:09.742Z,0.00
2017-11-09T02:35:09.742Z,0.00
2017-11-09T02:36:09.729Z,0.00
2017-11-09T02:37:09.725Z,0.00
2017-11-09T02:38:09.709Z,0.00
2017-11-09T02:39:09.699Z,0.00
2017-11-09T02:40:09.693Z,0.00
2017-11-09T02:41:09.683Z,0.00
2017-11-09T02:42:09.677Z,0.00
2017-11-09T02:43:09.663Z,0.00
2017-11-09T02:44:09.660Z,0.00
2017-11-09T02:45:09.649Z,0.00
2017-11-09T02:46:09.639Z,0.00
2017-11-09T02:47:09.632Z,0.00
2017-11-09T02:48:09.627Z,0.00
2017-11-09T02:49:09.617Z,0.00
2017-11-09T02:50:09.603Z,0.00
2017-11-09T02:51:09.598Z,0.00
2017-11-09T02:52:10.132Z,0.00
2017-11-09T02:53:09.573Z,0.00
2017-11-09T02:54:09.577Z,0.00
2017-11-09T02:55:09.564Z,0.00
2017-11-09T02:56:09.550Z,0.00
2017-11-09T02:57:09.546Z,0.00
2017-11-09T02:58:09.529Z,0.00
2017-11-09T02:59:09.518Z,0.00
2017-11-09T03:00:09.512Z,0.00
2017-11-09T03:01:10.134Z,0.00
2017-11-09T03:02:09.492Z,0.00
2017-11-09T03:03:09.484Z,0.00
2017-11-09T03:04:09.473Z,0.00
2017-11-09T03:05:09.474Z,0.00
2017-11-09T03:06:09.457Z,0.00
2017-11-09T03:07:09.450Z,0.00
2017-11-09T03:08:09.443Z,0.00
2017-11-09T03:09:09.431Z,0.00
2017-11-09T03:10:09.424Z,0.00
2017-11-09T03:11:09.437Z,0.00
2017-11-09T03:12:09.409Z,0.00
2017-11-09T03:13:09.400Z,0.00
2017-11-09T03:14:09.385Z,0.00
2017-11-09T03:15:09.383Z,0.00
2017-11-09T03:16:09.366Z,0.00
2017-11-09T03:17:09.358Z,0.00
2017-11-09T03:18:09.367Z,0.00
2017-11-09T03:19:09.352Z,0.00
2017-11-09T03:20:10.141Z,0.00
2017-11-09T03:21:09.322Z,0.00
2017-11-09T03:22:09.317Z,0.00
2017-11-09T03:23:09.306Z,0.00
2017-11-09T03:24:09.299Z,0.00
2017-11-09T03:25:09.295Z,0.00
2017-11-09T03:26:09.280Z,0.00
2017-11-09T03:27:09.271Z,0.00
2017-11-09T03:28:09.262Z,0.00
2017-11-09T03:29:09.251Z,0.00
2017-11-09T03:30:09.249Z,0.00
2017-11-09T03:31:09.233Z,0.00
2017-11-09T03:32:09.219Z,0.00
2017-11-09T03:33:09.206Z,0.00
2017-11-09T03:34:09.201Z,0.00
2017-11-09T03:35:09.194Z,0.00
2017-11-09T03:36:09.186Z,0.00
2017-11-09T03:37:09.183Z,0.00
2017-11-09T03:38:09.189Z,0.00
2017-11-09T03:39:10.154Z,0.00
2017-11-09T03:40:09.152Z,0.00
2017-11-09T03:41:09.143Z,0.00
2017-11-09T03:42:09.134Z,0.00
2017-11-09T03:43:09.125Z,0.00
2017-11-09T03:44:09.120Z,0.00
2017-11-09T03:45:09.657Z,0.00
2017-11-09T03:46:09.099Z,0.00
2017-11-09T03:47:09.085Z,0.00
2017-11-09T03:48:09.077Z,0.00
2017-11-09T03:49:09.067Z,0.00
2017-11-09T03:50:09.059Z,0.00
2017-11-09T03:51:09.058Z,0.00
2017-11-09T03:52:09.036Z,0.00
2017-11-09T03:53:09.031Z,0.00
2017-11-09T03:54:09.027Z,0.00
2017-11-09T03:55:09.022Z,0.00
2017-11-09T03:56:09.007Z,0.00
2017-11-09T03:57:09.008Z,0.00
2017-11-09T03:58:09.651Z,0.00
2017-11-09T03:59:08.974Z,0.00
2017-11-09T04:00:08.969Z,0.00
2017-11-09T04:01:08.959Z,0.00
2017-11-09T04:02:08.953Z,0.00
2017-11-09T04:03:08.950Z,0.00
2017-11-09T04:04:08.936Z,0.00
2017-11-09T04:05:08.924Z,0.00
2017-11-09T04:06:08.920Z,0.00
2017-11-09T04:07:09.664Z,0.00
2017-11-09T04:08:08.898Z,0.00
2017-11-09T04:09:08.903Z,0.00
2017-11-09T04:10:08.889Z,0.00
2017-11-09T04:11:08.868Z,0.00
2017-11-09T04:12:08.875Z,0.00
2017-11-09T04:13:09.669Z,0.00
2017-11-09T04:14:08.844Z,0.00
2017-11-09T04:15:09.664Z,0.00
2017-11-09T04:16:08.842Z,0.00
2017-11-09T04:17:08.813Z,0.00
2017-11-09T04:18:08.828Z,0.00
2017-11-09T04:19:08.799Z,0.00
2017-11-09T04:20:08.789Z,0.00
2017-11-09T04:21:08.776Z,0.00
2017-11-09T04:22:08.770Z,0.00
2017-11-09T04:23:08.765Z,0.00
2017-11-09T04:24:08.754Z,0.00
2017-11-09T04:25:08.752Z,0.00
2017-11-09T04:26:08.733Z,0.00
2017-11-09T04:27:08.722Z,0.00
2017-11-09T04:28:08.714Z,0.00
2017-11-09T04:29:08.715Z,0.00
2017-11-09T04:30:08.695Z,0.00
2017-11-09T04:31:08.686Z,0.00
2017-11-09T04:32:08.677Z,0.00
2017-11-09T04:33:08.671Z,0.00
2017-11-09T04:34:09.174Z,0.00
2017-11-09T04:35:08.654Z,0.00
2017-11-09T04:36:08.652Z,0.00
2017-11-09T04:37:08.659Z,0.00
2017-11-09T04:38:08.626Z,0.00
2017-11-09T04:39:08.618Z,0.00
2017-11-09T04:40:09.175Z,0.00
2017-11-09T04:41:08.597Z,0.00
2017-11-09T04:42:08.585Z,0.00
2017-11-09T04:43:08.583Z,0.00
2017-11-09T04:44:08.569Z,0.00
2017-11-09T04:45:08.558Z,0.00
2017-11-09T04:46:08.545Z,0.00
2017-11-09T04:47:11.176Z,0.00
2017-11-09T04:48:08.535Z,0.00
2017-11-09T04:49:08.549Z,0.00
2017-11-09T04:50:09.181Z,0.00
2017-11-09T04:51:08.510Z,0.00
2017-11-09T04:52:09.179Z,0.00
2017-11-09T04:53:08.490Z,0.00
2017-11-09T04:54:08.480Z,0.00
2017-11-09T04:55:08.471Z,0.00
2017-11-09T04:56:08.465Z,0.00
2017-11-09T04:57:11.182Z,0.00
2017-11-09T04:58:08.438Z,0.00
2017-11-09T04:59:08.430Z,0.00
2017-11-09T05:00:08.423Z,0.00
2017-11-09T05:01:08.416Z,0.00
2017-11-09T05:02:08.407Z,0.00
2017-11-09T05:03:09.183Z,0.00
2017-11-09T05:04:11.186Z,0.00
2017-11-09T05:05:08.381Z,0.00
2017-11-09T05:06:08.369Z,0.00
2017-11-09T05:07:08.374Z,0.00
2017-11-09T05:08:08.352Z,0.00
2017-11-09T05:09:08.340Z,0.00
2017-11-09T05:10:08.331Z,0.00
2017-11-09T05:11:08.325Z,0.00
2017-11-09T05:12:08.313Z,0.00
2017-11-09T05:13:08.303Z,0.00
2017-11-09T05:14:11.187Z,0.00
2017-11-09T05:15:08.292Z,0.00
2017-11-09T05:16:08.273Z,0.00
2017-11-09T05:17:08.271Z,0.00
2017-11-09T05:18:08.264Z,0.00
2017-11-09T05:19:08.253Z,0.00
2017-11-09T05:20:08.241Z,0.00
2017-11-09T05:21:08.235Z,0.00
2017-11-09T05:22:08.224Z,0.00
2017-11-09T05:23:08.213Z,0.00
2017-11-09T05:24:08.204Z,0.00
2017-11-09T05:25:08.199Z,0.00
2017-11-09T05:26:08.188Z,0.00
2017-11-09T05:27:08.174Z,0.00
2017-11-09T05:28:08.173Z,0.00
2017-11-09T05:29:08.157Z,0.00
2017-11-09T05:30:08.155Z,0.00
2017-11-09T05:31:08.142Z,0.00
2017-11-09T05:32:08.137Z,0.00
2017-11-09T05:33:08.123Z,0.00
2017-11-09T05:34:08.112Z,0.00
2017-11-09T05:35:08.108Z,0.00
2017-11-09T05:36:08.098Z,0.00
2017-11-09T05:37:08.110Z,0.00
2017-11-09T05:38:08.076Z,0.00
2017-11-09T05:39:08.061Z,0.00
2017-11-09T05:40:08.058Z,0.00
2017-11-09T05:41:08.048Z,0.00
2017-11-09T05:42:08.039Z,0.00
2017-11-09T05:43:08.042Z,0.00
2017-11-09T05:44:08.047Z,0.00
2017-11-09T05:45:08.021Z,0.00
2017-11-09T05:46:08.005Z,0.00
2017-11-09T05:47:08.000Z,0.00
2017-11-09T05:48:07.991Z,0.00
2017-11-09T05:49:08.712Z,0.00
2017-11-09T05:50:07.974Z,0.00
2017-11-09T05:51:07.973Z,0.00
2017-11-09T05:52:07.955Z,0.00
2017-11-09T05:53:08.705Z,0.00
2017-11-09T05:54:07.932Z,0.00
2017-11-09T05:55:07.930Z,0.00
2017-11-09T05:56:07.925Z,0.00
2017-11-09T05:57:07.906Z,0.00
2017-11-09T05:58:07.907Z,0.00
2017-11-09T05:59:07.888Z,0.00
2017-11-09T06:00:07.874Z,0.00
2017-11-09T06:01:07.868Z,0.00
2017-11-09T06:02:07.873Z,0.00
2017-11-09T06:03:07.858Z,0.00
2017-11-09T06:04:07.853Z,0.00
2017-11-09T06:05:07.837Z,0.00
2017-11-09T06:06:07.830Z,0.00
2017-11-09T06:07:07.819Z,0.00
2017-11-09T06:08:08.714Z,0.00
2017-11-09T06:09:07.800Z,0.00
2017-11-09T06:10:07.794Z,0.00
2017-11-09T06:11:08.709Z,0.00
2017-11-09T06:12:07.784Z,0.00
2017-11-09T06:13:08.081Z,0.00
2017-11-09T06:14:07.761Z,0.00
2017-11-09T06:15:07.756Z,0.00
2017-11-09T06:16:07.741Z,4.00
2017-11-09T06:17:07.737Z,0.00
2017-11-09T06:18:07.718Z,0.00
2017-11-09T06:19:07.715Z,0.00
2017-11-09T06:20:07.703Z,4.00
2017-11-09T06:21:08.221Z,4.00
2017-11-09T06:22:07.695Z,4.00
2017-11-09T06:23:07.676Z,4.00
2017-11-09T06:24:07.668Z,4.00
2017-11-09T06:25:07.655Z,8.00
2017-11-09T06:26:07.654Z,8.00
2017-11-09T06:27:07.642Z,8.00
2017-11-09T06:28:07.637Z,8.00
2017-11-09T06:29:07.635Z,12.00
2017-11-09T06:30:08.214Z,12.00
2017-11-09T06:31:07.616Z,8.00
2017-11-09T06:32:07.598Z,12.00
2017-11-09T06:33:07.597Z,12.00
2017-11-09T06:34:07.576Z,16.00
2017-11-09T06:35:07.573Z,20.00
2017-11-09T06:36:07.559Z,20.00
2017-11-09T06:37:07.550Z,24.00
2017-11-09T06:38:07.541Z,24.00
2017-11-09T06:39:07.532Z,24.00
2017-11-09T06:40:07.523Z,28.00
2017-11-09T06:41:08.217Z,28.00
2017-11-09T06:42:07.511Z,28.00
2017-11-09T06:43:07.498Z,32.00
2017-11-09T06:44:07.492Z,36.00
2017-11-09T06:45:07.484Z,36.00
2017-11-09T06:46:07.477Z,40.00
2017-11-09T06:47:07.541Z,36.00
2017-11-09T06:48:07.461Z,40.00
2017-11-09T06:49:07.447Z,40.00
2017-11-09T06:50:07.434Z,40.00
2017-11-09T06:51:07.431Z,36.00
2017-11-09T06:52:07.897Z,44.00
2017-11-09T06:53:07.406Z,44.00
2017-11-09T06:54:07.396Z,48.00
2017-11-09T06:55:07.390Z,48.00
2017-11-09T06:56:07.606Z,52.00
2017-11-09T06:57:07.390Z,52.00
2017-11-09T06:58:07.366Z,60.00
2017-11-09T06:59:07.359Z,68.00
2017-11-09T07:00:07.349Z,72.00
2017-11-09T07:01:07.335Z,68.00
2017-11-09T07:02:07.329Z,68.00
2017-11-09T07:03:08.238Z,72.00
2017-11-09T07:04:07.314Z,72.00
2017-11-09T07:05:07.309Z,72.00
2017-11-09T07:06:07.291Z,68.00
2017-11-09T07:07:07.283Z,72.00
2017-11-09T07:08:07.267Z,80.00
2017-11-09T07:09:07.264Z,84.00
2017-11-09T07:10:07.256Z,96.00
2017-11-09T07:11:07.255Z,104.00
2017-11-09T07:12:07.246Z,120.00
2017-11-09T07:13:07.231Z,132.00
2017-11-09T07:14:07.231Z,132.00
2017-11-09T07:15:07.215Z,128.00
2017-11-09T07:16:07.210Z,140.00
2017-11-09T07:17:07.732Z,152.00
2017-11-09T07:18:07.189Z,152.00
2017-11-09T07:19:07.229Z,160.00
2017-11-09T07:20:07.186Z,152.00
2017-11-09T07:21:07.158Z,152.00
2017-11-09T07:22:07.141Z,176.00
2017-11-09T07:23:07.157Z,200.00
2017-11-09T07:24:07.134Z,204.00
2017-11-09T07:25:07.133Z,180.00
2017-11-09T07:26:07.114Z,172.00
2017-11-09T07:27:07.108Z,160.00
2017-11-09T07:28:07.103Z,164.00
2017-11-09T07:29:07.305Z,180.00
2017-11-09T07:30:07.085Z,200.00
2017-11-09T07:31:07.077Z,208.00
2017-11-09T07:32:07.415Z,204.00
2017-11-09T07:33:07.048Z,196.00
2017-11-09T07:34:07.047Z,196.00
2017-11-09T07:35:07.759Z,216.00
2017-11-09T07:36:07.030Z,220.00
2017-11-09T07:37:07.748Z,264.00
2017-11-09T07:38:07.008Z,292.00
2017-11-09T07:39:07.000Z,288.00
2017-11-09T07:40:06.992Z,304.00
2017-11-09T07:41:06.982Z,248.00
2017-11-09T07:42:06.975Z,208.00
2017-11-09T07:43:06.960Z,240.00
2017-11-09T07:44:06.960Z,276.00
2017-11-09T07:45:06.969Z,308.00
2017-11-09T07:46:06.953Z,268.00
2017-11-09T07:47:06.932Z,248.00
2017-11-09T07:48:06.935Z,236.00
2017-11-09T07:49:06.910Z,268.00
2017-11-09T07:50:06.910Z,316.00
2017-11-09T07:51:06.899Z,360.00
2017-11-09T07:52:06.889Z,352.00
2017-11-09T07:53:06.879Z,360.00
2017-11-09T07:54:06.871Z,376.00
2017-11-09T07:55:06.859Z,368.00
2017-11-09T07:56:06.843Z,344.00
2017-11-09T07:57:06.845Z,316.00
2017-11-09T07:58:06.832Z,296.00
2017-11-09T07:59:06.823Z,292.00
2017-11-09T08:00:06.819Z,304.00
2017-11-09T08:01:06.811Z,344.00
2017-11-09T08:02:07.754Z,360.00
2017-11-09T08:03:06.789Z,408.00
2017-11-09T08:04:06.788Z,464.00
2017-11-09T08:05:06.768Z,456.00
2017-11-09T08:06:06.762Z,336.00
2017-11-09T08:07:07.254Z,316.00
2017-11-09T08:08:06.772Z,332.00
2017-11-09T08:09:06.734Z,276.00
2017-11-09T08:10:06.726Z,288.00
2017-11-09T08:11:06.717Z,388.00
2017-11-09T08:12:06.705Z,580.00
2017-11-09T08:13:06.704Z,532.00
2017-11-09T08:14:06.690Z,352.00
2017-11-09T08:15:06.682Z,284.00
2017-11-09T08:16:06.677Z,300.00
2017-11-09T08:17:06.676Z,288.00
2017-11-09T08:18:06.649Z,364.00
2017-11-09T08:19:06.644Z,408.00
2017-11-09T08:20:06.637Z,352.00
2017-11-09T08:21:06.633Z,288.00
2017-11-09T08:22:06.724Z,280.00
2017-11-09T08:23:06.601Z,364.00
2017-11-09T08:24:06.600Z,412.00
2017-11-09T08:25:06.590Z,376.00
2017-11-09T08:26:06.603Z,376.00
2017-11-09T08:27:06.576Z,488.00
2017-11-09T08:28:06.571Z,476.00
2017-11-09T08:29:06.557Z,480.00
2017-11-09T08:30:06.554Z,456.00
2017-11-09T08:31:06.540Z,492.00
2017-11-09T08:32:06.540Z,540.00
2017-11-09T08:33:06.521Z,520.00
2017-11-09T08:34:06.511Z,500.00
2017-11-09T08:35:06.524Z,480.00
2017-11-09T08:36:06.494Z,516.00
2017-11-09T08:37:06.485Z,536.00
2017-11-09T08:38:06.476Z,536.00
2017-11-09T08:39:06.472Z,572.00
2017-11-09T08:40:07.261Z,596.00
2017-11-09T08:41:06.454Z,556.00
2017-11-09T08:42:06.447Z,660.00
2017-11-09T08:43:06.437Z,652.00
2017-11-09T08:44:06.457Z,600.00
2017-11-09T08:45:06.414Z,608.00
2017-11-09T08:46:06.420Z,580.00
2017-11-09T08:47:06.408Z,528.00
2017-11-09T08:48:06.392Z,536.00
2017-11-09T08:49:06.381Z,524.00
2017-11-09T08:50:06.369Z,636.00
2017-11-09T08:51:07.278Z,788.00
2017-11-09T08:52:06.370Z,744.00
2017-11-09T08:53:06.348Z,748.00
2017-11-09T08:54:07.263Z,752.00
2017-11-09T08:55:06.333Z,704.00
2017-11-09T08:56:06.320Z,740.00
2017-11-09T08:57:06.312Z,928.00
2017-11-09T08:58:06.302Z,1012.00
2017-11-09T08:59:06.298Z,948.00
2017-11-09T09:00:06.286Z,928.00
2017-11-09T09:01:07.273Z,1024.00
2017-11-09T09:02:06.272Z,1196.00
2017-11-09T09:03:06.282Z,1232.00
2017-11-09T09:04:06.784Z,1344.00
2017-11-09T09:05:06.243Z,1440.00
2017-11-09T09:06:06.231Z,1536.00
2017-11-09T09:07:06.223Z,1644.00
2017-11-09T09:08:06.215Z,1748.00
2017-11-09T09:09:06.206Z,1820.00
2017-11-09T09:10:06.217Z,1888.00
2017-11-09T09:11:06.210Z,1916.00
2017-11-09T09:12:06.176Z,1832.00
2017-11-09T09:13:06.777Z,1696.00
2017-11-09T09:14:06.165Z,1680.00
2017-11-09T09:15:06.156Z,1788.00
2017-11-09T09:16:06.149Z,1984.00
2017-11-09T09:17:06.157Z,2184.00
2017-11-09T09:18:06.125Z,2280.00
2017-11-09T09:19:06.115Z,2444.00
2017-11-09T09:20:06.111Z,2560.00
2017-11-09T09:21:06.116Z,2664.00
2017-11-09T09:22:06.109Z,2716.00
2017-11-09T09:23:06.091Z,2628.00
2017-11-09T09:24:06.079Z,2436.00
2017-11-09T09:25:06.077Z,2180.00
2017-11-09T09:26:06.077Z,2028.00
2017-11-09T09:27:06.060Z,2036.00
2017-11-09T09:28:06.042Z,2128.00
2017-11-09T09:29:06.052Z,2304.00
2017-11-09T09:30:06.035Z,2488.00
2017-11-09T09:31:06.014Z,2580.00
2017-11-09T09:32:06.014Z,2692.00
2017-11-09T09:33:05.998Z,2932.00
2017-11-09T09:34:06.004Z,3124.00
2017-11-09T09:35:06.000Z,3100.00
2017-11-09T09:36:05.984Z,2892.00
2017-11-09T09:37:05.971Z,2688.00
2017-11-09T09:38:05.970Z,2568.00
2017-11-09T09:39:05.963Z,2548.00
2017-11-09T09:40:05.950Z,2600.00
2017-11-09T09:41:05.960Z,2700.00
2017-11-09T09:42:05.931Z,2856.00
2017-11-09T09:43:05.931Z,2964.00
2017-11-09T09:44:06.793Z,2892.00
2017-11-09T09:45:05.904Z,2884.00
2017-11-09T09:46:08.787Z,3052.00
2017-11-09T09:47:06.787Z,3260.00
2017-11-09T09:48:05.881Z,3092.00
2017-11-09T09:49:05.883Z,2964.00
2017-11-09T09:50:05.868Z,2684.00
2017-11-09T09:51:05.866Z,2772.00
2017-11-09T09:52:05.852Z,2872.00
2017-11-09T09:53:05.847Z,2956.00
2017-11-09T09:54:05.851Z,2996.00
2017-11-09T09:55:06.797Z,3152.00
2017-11-09T09:56:05.834Z,2932.00
2017-11-09T09:57:06.799Z,2624.00
2017-11-09T09:58:05.807Z,3004.00
2017-11-09T09:59:05.804Z,3084.00
2017-11-09T10:00:05.797Z,3004.00
2017-11-09T10:01:05.786Z,2980.00
2017-11-09T10:02:05.772Z,2172.00
2017-11-09T10:03:05.768Z,2188.00
2017-11-09T10:04:05.760Z,2160.00
2017-11-09T10:05:05.757Z,2368.00
2017-11-09T10:06:05.739Z,2396.00
2017-11-09T10:07:05.740Z,2400.00
2017-11-09T10:08:05.729Z,2388.00
2017-11-09T10:09:05.725Z,2140.00
2017-11-09T10:10:05.727Z,2344.00
2017-11-09T10:11:05.701Z,2596.00
2017-11-09T10:12:08.301Z,3276.00
2017-11-09T10:13:05.693Z,3772.00
2017-11-09T10:14:05.689Z,3836.00
2017-11-09T10:15:05.682Z,4092.00
2017-11-09T10:16:05.674Z,4256.00
2017-11-09T10:17:05.675Z,3404.00
2017-11-09T10:18:05.656Z,3716.00
2017-11-09T10:19:05.649Z,3184.00
2017-11-09T10:20:05.647Z,3372.00
2017-11-09T10:21:05.633Z,3576.00
2017-11-09T10:22:05.628Z,3644.00
2017-11-09T10:23:05.623Z,3692.00
2017-11-09T10:24:05.619Z,3668.00
2017-11-09T10:25:06.314Z,3304.00
2017-11-09T10:26:05.592Z,3048.00
2017-11-09T10:27:05.594Z,2972.00
2017-11-09T10:28:05.582Z,2928.00
2017-11-09T10:29:05.581Z,2896.00
2017-11-09T10:30:05.568Z,2944.00
2017-11-09T10:31:05.563Z,2908.00
2017-11-09T10:32:05.576Z,2784.00
2017-11-09T10:33:05.546Z,2668.00
2017-11-09T10:34:05.541Z,2664.00
2017-11-09T10:35:05.537Z,2936.00
2017-11-09T10:36:05.525Z,2868.00
2017-11-09T10:37:05.520Z,2948.00
2017-11-09T10:38:05.515Z,2876.00
2017-11-09T10:39:05.502Z,2512.00
2017-11-09T10:40:05.497Z,2460.00
2017-11-09T10:41:05.488Z,2784.00
2017-11-09T10:42:05.476Z,2604.00
2017-11-09T10:43:05.476Z,2688.00
2017-11-09T10:44:05.473Z,2572.00
2017-11-09T10:45:05.458Z,2472.00
2017-11-09T10:46:05.452Z,2720.00
2017-11-09T10:47:06.310Z,2548.00
2017-11-09T10:48:05.442Z,2500.00
2017-11-09T10:49:05.432Z,2360.00
2017-11-09T10:50:05.426Z,1928.00
2017-11-09T10:51:05.421Z,1772.00
2017-11-09T10:52:05.421Z,1792.00
2017-11-09T10:53:06.315Z,2036.00
2017-11-09T10:54:05.396Z,1944.00
2017-11-09T10:55:05.384Z,1496.00
2017-11-09T10:56:05.382Z,1412.00
2017-11-09T10:57:05.375Z,1316.00
2017-11-09T10:58:05.372Z,1288.00
2017-11-09T10:59:05.360Z,1408.00
2017-11-09T11:00:05.362Z,1704.00
2017-11-09T11:01:05.345Z,1912.00
2017-11-09T11:02:05.338Z,1792.00
2017-11-09T11:03:05.326Z,1688.00
2017-11-09T11:04:05.323Z,1748.00
2017-11-09T11:05:05.316Z,1764.00
2017-11-09T11:06:05.314Z,1596.00
2017-11-09T11:07:05.308Z,1640.00
2017-11-09T11:08:05.302Z,1752.00
2017-11-09T11:09:05.292Z,1800.00
2017-11-09T11:10:05.277Z,1564.00
2017-11-09T11:11:05.270Z,1480.00
2017-11-09T11:12:05.823Z,1624.00
2017-11-09T11:13:05.268Z,1668.00
2017-11-09T11:14:05.248Z,1832.00
2017-11-09T11:15:05.247Z,1880.00
2017-11-09T11:16:05.235Z,2108.00
2017-11-09T11:17:05.221Z,2504.00
2017-11-09T11:18:05.227Z,2936.00
2017-11-09T11:19:05.209Z,2712.00
2017-11-09T11:20:05.205Z,2520.00
2017-11-09T11:21:05.196Z,1972.00
2017-11-09T11:22:05.192Z,2284.00
2017-11-09T11:23:05.186Z,2784.00
2017-11-09T11:24:05.180Z,3032.00
2017-11-09T11:25:05.171Z,3284.00
2017-11-09T11:26:05.160Z,2908.00
2017-11-09T11:27:05.851Z,2864.00
2017-11-09T11:28:05.162Z,2624.00
2017-11-09T11:29:05.138Z,2352.00
2017-11-09T11:30:05.139Z,2664.00
2017-11-09T11:31:05.126Z,3100.00
2017-11-09T11:32:05.826Z,3048.00
2017-11-09T11:33:05.124Z,2968.00
2017-11-09T11:34:05.097Z,2928.00
2017-11-09T11:35:05.095Z,3136.00
2017-11-09T11:36:05.092Z,3396.00
2017-11-09T11:37:05.094Z,3220.00
2017-11-09T11:38:05.081Z,2916.00
2017-11-09T11:39:05.063Z,2856.00
2017-11-09T11:40:05.061Z,3036.00
2017-11-09T11:41:05.836Z,3528.00
2017-11-09T11:42:05.048Z,3304.00
2017-11-09T11:43:05.039Z,3160.00
2017-11-09T11:44:05.035Z,3312.00
2017-11-09T11:45:05.028Z,3380.00
2017-11-09T11:46:05.026Z,3156.00
2017-11-09T11:47:05.021Z,3272.00
2017-11-09T11:48:05.005Z,3396.00
2017-11-09T11:49:05.000Z,3692.00
2017-11-09T11:50:04.994Z,4272.00
2017-11-09T11:51:05.892Z,4476.00
2017-11-09T11:52:04.994Z,4180.00
2017-11-09T11:53:04.983Z,3972.00
2017-11-09T11:54:04.972Z,3932.00
2017-11-09T11:55:04.962Z,4204.00
2017-11-09T11:56:04.948Z,4564.00
2017-11-09T11:57:04.942Z,4512.00
2017-11-09T11:58:04.941Z,4236.00
2017-11-09T11:59:04.930Z,3960.00
2017-11-09T12:00:04.965Z,3344.00
2017-11-09T12:01:04.920Z,3068.00
2017-11-09T12:02:04.927Z,3092.00
2017-11-09T12:03:04.905Z,2956.00
2017-11-09T12:04:04.907Z,2832.00
2017-11-09T12:05:04.893Z,2660.00
2017-11-09T12:06:04.888Z,2576.00
2017-11-09T12:07:04.888Z,2624.00
2017-11-09T12:08:04.876Z,2400.00
2017-11-09T12:09:04.869Z,2140.00
2017-11-09T12:10:04.863Z,2056.00
2017-11-09T12:11:04.852Z,2000.00
2017-11-09T12:12:04.850Z,1976.00
2017-11-09T12:13:04.844Z,2216.00
2017-11-09T12:14:04.853Z,2176.00
2017-11-09T12:15:04.840Z,2464.00
2017-11-09T12:16:04.825Z,2536.00
2017-11-09T12:17:05.363Z,2120.00
2017-11-09T12:18:04.812Z,2068.00
2017-11-09T12:19:04.803Z,2108.00
2017-11-09T12:20:04.803Z,2068.00
2017-11-09T12:21:04.800Z,2396.00
2017-11-09T12:22:04.778Z,2604.00
2017-11-09T12:23:05.380Z,2288.00
2017-11-09T12:24:04.770Z,2268.00
2017-11-09T12:25:04.767Z,2388.00
2017-11-09T12:26:04.883Z,2480.00
2017-11-09T12:27:04.924Z,2244.00
2017-11-09T12:28:04.736Z,2108.00
2017-11-09T12:29:04.746Z,2200.00
2017-11-09T12:30:04.732Z,2288.00
2017-11-09T12:31:04.720Z,2240.00
2017-11-09T12:32:05.358Z,2164.00
2017-11-09T12:33:04.709Z,2216.00
2017-11-09T12:34:04.697Z,2268.00
2017-11-09T12:35:04.691Z,2208.00
2017-11-09T12:36:07.359Z,2036.00
2017-11-09T12:37:04.679Z,2048.00
2017-11-09T12:38:04.678Z,2184.00
2017-11-09T12:39:04.664Z,2064.00
2017-11-09T12:40:04.677Z,2620.00
2017-11-09T12:41:04.655Z,2544.00
2017-11-09T12:42:04.642Z,1916.00
2017-11-09T12:43:04.636Z,1816.00
2017-11-09T12:44:04.637Z,1748.00
2017-11-09T12:45:04.843Z,1872.00
2017-11-09T12:46:04.617Z,1936.00
2017-11-09T12:47:04.604Z,2080.00